Time;durP1;ratioP1;P1;durP2;ratioP2;P2;SDS_P1;SDS_P2;PMS_P1;PMS_P2;Temp;Humidity;BMP_temperature;BMP_pressure;BME280_temperature;BME280_humidity;BME280_pressure;Samples;Min_cycle;Max_cycle;Signal;HPM_P1;HPM_P2
2024/01/03 00:03:08;;;;;;;4.78;3.88;;;;;;;7.77;100.00;97971.66;12545717;23;20092;-78
2024/01/03 00:08:10;;;;;;;7.40;4.13;;;;;;;7.85;100.00;97960.88;12572127;23;20473;-78
2024/01/03 00:13:53;;;;;;;6.57;3.80;;;;;;;8.02;100.00;97961.09;12555026;23;20029;-77
2024/01/03 00:18:55;;;;;;;5.00;3.63;;;;;;;8.07;100.00;97943.69;12551394;23;20029;-78
2024/01/03 00:24:11;;;;;;;4.13;3.63;;;;;;;8.11;100.00;97941.03;12577851;23;20047;-78
2024/01/03 00:29:28;;;;;;;6.30;4.50;;;;;;;8.06;100.00;97928.53;12578665;23;20032;-78
2024/01/03 00:34:46;;;;;;;4.90;4.40;;;;;;;8.08;100.00;97926.22;12539764;23;20028;-76
2024/01/03 00:39:57;;;;;;;9.82;4.57;;;;;;;8.18;100.00;97925.56;12575681;23;20533;-76
2024/01/03 00:45:03;;;;;;;7.07;5.18;;;;;;;8.21;100.00;97916.66;12471396;23;20033;-76
2024/01/03 00:50:07;;;;;;;5.55;5.05;;;;;;;8.27;100.00;97921.78;12578647;23;20029;-78
2024/01/03 00:55:13;;;;;;;7.47;6.00;;;;;;;8.32;100.00;97916.00;12581705;23;20063;-77
2024/01/03 01:00:22;;;;;;;6.57;5.97;;;;;;;8.34;100.00;97914.47;12479443;23;20503;-76
2024/01/03 01:05:33;;;;;;;7.40;6.63;;;;;;;8.35;100.00;97901.63;12581185;23;20020;-76
2024/01/03 01:10:32;;;;;;;10.55;7.18;;;;;;;8.39;100.00;97913.38;12570532;23;20021;-77
2024/01/03 01:15:33;;;;;;;9.23;7.23;;;;;;;8.39;100.00;97913.38;12544848;23;20024;-78
2024/01/03 01:20:40;;;;;;;7.63;6.93;;;;;;;8.44;100.00;97937.56;12576829;23;20041;-77
2024/01/03 01:25:39;;;;;;;10.35;7.43;;;;;;;8.49;100.00;97926.34;12554197;23;20020;-78
2024/01/03 01:30:39;;;;;;;8.45;6.93;;;;;;;8.47;100.00;97936.84;12581659;23;20172;-77
2024/01/03 01:35:50;;;;;;;9.60;7.63;;;;;;;8.49;100.00;97939.94;12580670;23;20075;-78
2024/01/03 01:40:59;;;;;;;8.75;7.03;;;;;;;8.48;100.00;97960.19;12523273;23;20025;-69
2024/01/03 01:45:56;;;;;;;7.88;7.10;;;;;;;8.45;100.00;97982.72;12495000;23;20045;-70
2024/01/03 01:50:53;;;;;;;7.78;6.50;;;;;;;8.49;100.00;98005.31;12511254;23;20100;-69
2024/01/03 01:55:50;;;;;;;8.35;7.07;;;;;;;8.49;100.00;98043.44;12504561;23;20459;-70
2024/01/03 02:00:48;;;;;;;13.02;6.85;;;;;;;8.30;100.00;98046.25;12513881;23;20029;-70
2024/01/03 02:05:45;;;;;;;8.48;6.45;;;;;;;8.26;100.00;98039.97;12510190;23;20367;-69
2024/01/03 02:10:42;;;;;;;11.85;7.32;;;;;;;8.13;100.00;98026.59;12509804;23;20072;-70
2024/01/03 02:15:38;;;;;;;9.98;7.30;;;;;;;8.12;100.00;98008.69;12514775;23;20029;-70
2024/01/03 02:20:36;;;;;;;9.25;6.53;;;;;;;8.05;100.00;98014.00;12515840;23;20025;-70
2024/01/03 02:25:32;;;;;;;8.70;5.95;;;;;;;7.98;100.00;97989.41;12514959;23;20024;-71
2024/01/03 02:30:29;;;;;;;10.65;6.07;;;;;;;7.93;100.00;97973.41;12515662;23;20025;-70
2024/01/03 02:35:25;;;;;;;6.32;5.72;;;;;;;7.90;100.00;97974.16;12514700;23;20024;-70
2024/01/03 02:40:22;;;;;;;6.25;5.65;;;;;;;7.86;100.00;97962.44;12506667;23;20031;-69
2024/01/03 02:45:19;;;;;;;6.82;5.70;;;;;;;7.82;100.00;97956.16;12455578;23;20496;-70
2024/01/03 02:50:15;;;;;;;9.70;5.55;;;;;;;7.86;100.00;97957.00;12454718;23;20030;-70
2024/01/03 02:55:12;;;;;;;6.03;5.18;;;;;;;7.88;100.00;97971.03;12454749;23;20200;-71
2024/01/03 03:00:10;;;;;;;7.57;5.80;;;;;;;7.83;100.00;97968.63;12449777;23;20026;-70
2024/01/03 03:05:06;;;;;;;5.78;5.28;;;;;;;7.78;100.00;97967.78;12454533;23;20022;-71
2024/01/03 03:10:03;;;;;;;9.23;5.47;;;;;;;7.78;100.00;97973.22;12449133;23;20546;-71
2024/01/03 03:15:00;;;;;;;6.30;5.70;;;;;;;7.75;100.00;97984.84;12454974;23;20108;-70
2024/01/03 03:19:56;;;;;;;10.57;6.07;;;;;;;7.74;100.00;97994.13;12454448;23;20114;-70
2024/01/03 03:24:53;;;;;;;10.63;6.30;;;;;;;7.69;100.00;98002.59;12454837;23;20026;-69
2024/01/03 03:29:50;;;;;;;8.38;5.45;;;;;;;7.59;100.00;98006.72;12448503;23;20026;-70
2024/01/03 03:34:47;;;;;;;8.65;5.20;;;;;;;7.61;100.00;97995.47;12396542;23;20073;-70
2024/01/03 03:39:43;;;;;;;5.78;5.22;;;;;;;7.48;100.00;98013.13;12450703;23;20022;-70
2024/01/03 03:44:40;;;;;;;6.63;6.07;;;;;;;7.41;100.00;98015.75;12454403;23;20041;-71
2024/01/03 03:49:37;;;;;;;8.25;6.30;;;;;;;7.36;100.00;98012.16;12395063;23;20034;-72
2024/01/03 03:54:34;;;;;;;6.28;5.30;;;;;;;7.36;100.00;98028.47;12448443;23;20097;-70
2024/01/03 03:59:30;;;;;;;5.70;5.05;;;;;;;7.34;100.00;98000.88;12453767;23;20037;-70
2024/01/03 04:04:27;;;;;;;6.65;6.05;;;;;;;7.27;100.00;97991.81;12452381;23;20026;-70
2024/01/03 04:09:26;;;;;;;6.85;5.60;;;;;;;7.23;100.00;97983.59;12447732;23;20029;-70
2024/01/03 04:14:22;;;;;;;6.38;5.70;;;;;;;7.22;100.00;98003.78;12453190;23;20032;-70
2024/01/03 04:19:19;;;;;;;7.00;6.38;;;;;;;7.19;100.00;97966.44;12452416;23;20523;-70
2024/01/03 04:24:16;;;;;;;5.82;5.43;;;;;;;7.16;100.00;97980.75;12450915;23;20035;-68
2024/01/03 04:29:12;;;;;;;8.10;6.25;;;;;;;7.09;100.00;97975.19;12446356;23;20045;-69
2024/01/03 04:34:09;;;;;;;6.03;5.43;;;;;;;7.07;100.00;97972.06;12445016;23;20057;-72
2024/01/03 04:39:06;;;;;;;5.72;4.82;;;;;;;7.09;100.00;97958.88;12450995;23;20100;-73
2024/01/03 04:44:02;;;;;;;6.10;5.47;;;;;;;7.04;100.00;97956.47;12499905;23;20030;-71
2024/01/03 04:48:59;;;;;;;5.93;5.32;;;;;;;7.09;100.00;97956.19;12511725;23;20028;-71
2024/01/03 04:53:55;;;;;;;6.10;5.60;;;;;;;7.02;100.00;97964.22;12509076;23;20041;-72
2024/01/03 04:58:52;;;;;;;7.03;6.30;;;;;;;7.02;100.00;97969.63;12504714;23;20032;-72
2024/01/03 05:03:49;;;;;;;6.60;5.90;;;;;;;7.04;100.00;97959.97;12507278;23;20085;-71
2024/01/03 05:08:46;;;;;;;6.10;5.60;;;;;;;7.07;100.00;97961.19;12508554;23;20033;-72
2024/01/03 05:13:42;;;;;;;5.95;5.38;;;;;;;7.08;100.00;97946.47;12504046;23;20515;-72
2024/01/03 05:18:39;;;;;;;5.60;5.10;;;;;;;7.08;100.00;97947.25;12510336;23;20096;-69
2024/01/03 05:23:37;;;;;;;5.43;5.03;;;;;;;7.11;100.00;97932.16;12433016;23;20019;-78
2024/01/03 05:28:33;;;;;;;6.85;4.82;;;;;;;7.17;100.00;97960.56;12354158;23;20480;-77
2024/01/03 05:33:31;;;;;;;5.80;5.40;;;;;;;7.27;100.00;97951.06;12375465;23;20062;-79
2024/01/03 05:38:29;;;;;;;7.22;5.22;;;;;;;7.18;100.00;97932.25;12392529;23;20049;-78
2024/01/03 05:43:28;;;;;;;5.85;5.35;;;;;;;7.15;100.00;97946.59;12415669;23;20460;-78
2024/01/03 05:48:26;;;;;;;5.30;4.80;;;;;;;7.19;100.00;97958.28;12409663;23;20393;-81
2024/01/03 05:53:23;;;;;;;5.68;4.90;;;;;;;7.21;100.00;97934.25;12417159;23;20030;-79
2024/01/03 05:58:19;;;;;;;5.80;5.00;;;;;;;7.17;100.00;97933.41;12418187;23;20073;-78
2024/01/03 06:03:17;;;;;;;6.15;4.63;;;;;;;7.23;100.00;97955.63;12420447;23;20054;-79
2024/01/03 06:08:17;;;;;;;6.40;5.80;;;;;;;7.28;100.00;97934.38;12421725;23;20457;-78
2024/01/03 06:13:15;;;;;;;6.40;5.40;;;;;;;7.28;100.00;97945.22;12389117;23;20030;-79
2024/01/03 06:18:13;;;;;;;6.10;5.60;;;;;;;7.27;100.00;97965.41;12394862;23;20073;-79
2024/01/03 06:23:12;;;;;;;6.15;5.55;;;;;;;7.26;100.00;97958.41;12447477;23;20030;-79
2024/01/03 06:28:08;;;;;;;6.70;6.20;;;;;;;7.25;100.00;97954.13;12455467;23;20026;-78
2024/01/03 06:33:07;;;;;;;6.22;5.70;;;;;;;7.19;100.00;97985.44;12439322;23;20113;-79
2024/01/03 06:38:04;;;;;;;6.70;6.25;;;;;;;7.21;100.00;97976.94;12456115;23;20348;-79
2024/01/03 06:43:02;;;;;;;5.70;5.30;;;;;;;7.20;100.00;97987.03;12429937;23;20025;-79
2024/01/03 06:48:18;;;;;;;5.93;5.53;;;;;;;7.14;100.00;97983.03;12450987;23;20112;-81
2024/01/03 06:53:18;;;;;;;6.10;5.70;;;;;;;7.08;100.00;97984.50;12457326;23;20030;-80
2024/01/03 06:58:19;;;;;;;6.13;5.60;;;;;;;7.05;100.00;98007.72;12432356;23;20400;-81
2024/01/03 07:03:17;;;;;;;5.45;5.05;;;;;;;7.05;100.00;98017.81;12458281;23;20030;-80
2024/01/03 07:08:15;;;;;;;5.95;5.55;;;;;;;7.01;100.00;98000.66;12457133;23;20025;-80
2024/01/03 07:13:13;;;;;;;5.80;5.40;;;;;;;7.05;100.00;98005.00;12451211;23;20472;-81
2024/01/03 07:18:10;;;;;;;6.05;5.65;;;;;;;7.06;100.00;97992.22;12456462;23;20025;-80
2024/01/03 07:23:08;;;;;;;6.05;4.88;;;;;;;7.12;100.00;98026.09;12453688;23;20034;-80
2024/01/03 07:28:05;;;;;;;6.57;5.25;;;;;;;7.11;100.00;98005.50;12453297;23;20022;-80
2024/01/03 07:33:04;;;;;;;9.70;6.15;;;;;;;7.13;100.00;98005.94;12454167;23;20057;-80
2024/01/03 07:38:10;;;;;;;10.65;5.40;;;;;;;7.15;100.00;98028.09;12433271;23;20029;-79
2024/01/03 07:43:21;;;;;;;15.23;7.32;;;;;;;7.11;100.00;98022.59;12454919;23;20042;-77
2024/01/03 07:48:18;;;;;;;12.43;5.75;;;;;;;7.11;100.00;98033.47;12456391;23;20052;-77
2024/01/03 07:53:16;;;;;;;6.32;4.93;;;;;;;7.09;100.00;98043.13;12455047;23;20088;-78
2024/01/03 07:58:17;;;;;;;7.70;5.35;;;;;;;7.07;100.00;98019.03;12450146;23;20739;-77
2024/01/03 08:03:17;;;;;;;12.30;6.00;;;;;;;7.09;100.00;98024.09;12451643;23;20026;-77
2024/01/03 08:08:14;;;;;;;10.45;6.35;;;;;;;7.09;100.00;98034.97;12456583;23;20030;-78
2024/01/03 08:13:13;;;;;;;9.25;6.43;;;;;;;7.15;100.00;98049.84;12450259;23;20056;-78
2024/01/03 08:18:11;;;;;;;14.10;6.15;;;;;;;7.25;100.00;98032.94;12454908;23;20100;-78
2024/01/03 08:23:12;;;;;;;10.18;8.05;;;;;;;7.25;100.00;98049.25;12455409;23;20101;-78
2024/01/03 08:28:09;;;;;;;15.65;8.40;;;;;;;7.35;100.00;98062.22;12455653;23;20093;-78
2024/01/03 08:33:06;;;;;;;13.45;6.90;;;;;;;7.45;100.00;98090.78;12454792;23;20030;-78
2024/01/03 08:38:04;;;;;;;12.90;7.40;;;;;;;7.49;100.00;98102.47;12454383;23;20338;-79
2024/01/03 08:43:03;;;;;;;12.18;7.72;;;;;;;7.58;100.00;98143.03;12453679;23;20068;-78
2024/01/03 08:48:03;;;;;;;7.25;6.55;;;;;;;7.63;100.00;98188.97;12438733;23;20022;-78
2024/01/03 08:53:01;;;;;;;13.93;7.65;;;;;;;7.58;100.00;98198.22;12456437;23;20026;-77
2024/01/03 08:58:02;;;;;;;13.95;8.50;;;;;;;7.63;100.00;98218.88;12453526;23;20034;-77
2024/01/03 09:03:00;;;;;;;12.05;8.02;;;;;;;7.67;100.00;98221.69;12453235;23;20044;-77
2024/01/03 09:07:58;;;;;;;13.65;7.20;;;;;;;7.73;100.00;98242.81;12456653;23;20077;-77
2024/01/03 09:12:59;;;;;;;7.68;6.93;;;;;;;7.78;100.00;98267.00;12450400;23;20049;-77
2024/01/03 09:17:56;;;;;;;13.50;9.10;;;;;;;7.69;100.00;98269.13;12458287;23;20490;-77
2024/01/03 09:22:53;;;;;;;9.68;7.97;;;;;;;7.85;100.00;98298.22;12458153;23;20073;-77
2024/01/03 09:27:53;;;;;;;9.82;8.30;;;;;;;7.83;100.00;98284.97;12458496;23;20073;-78
2024/01/03 09:32:51;;;;;;;12.88;7.05;;;;;;;7.93;100.00;98324.41;12458072;23;20030;-76
2024/01/03 09:37:48;;;;;;;7.70;6.68;;;;;;;7.96;100.00;98342.72;12454401;23;20079;-77
2024/01/03 09:42:47;;;;;;;10.80;7.15;;;;;;;7.96;100.00;98380.81;12455331;23;20692;-76
2024/01/03 09:47:46;;;;;;;10.40;6.70;;;;;;;7.99;100.00;98364.56;12452398;23;20097;-76
2024/01/03 09:52:46;;;;;;;12.35;7.80;;;;;;;7.99;100.00;98363.78;12456719;23;20030;-77
2024/01/03 09:57:45;;;;;;;8.80;6.80;;;;;;;8.02;100.00;98368.50;12457719;23;20360;-77
2024/01/03 10:02:47;;;;;;;12.00;6.85;;;;;;;8.02;100.00;98377.47;12452041;23;20029;-76
2024/01/03 10:07:47;;;;;;;8.30;7.18;;;;;;;7.94;100.00;98374.97;12452196;23;20053;-76
2024/01/03 10:12:47;;;;;;;12.23;7.60;;;;;;;7.97;100.00;98355.19;12456544;23;20322;-76
2024/01/03 10:17:45;;;;;;;11.18;7.07;;;;;;;8.17;100.00;98364.94;12451755;23;20139;-76
2024/01/03 10:22:43;;;;;;;11.95;7.10;;;;;;;8.22;100.00;98370.09;12456694;23;20026;-76
2024/01/03 10:28:15;;;;;;;11.40;7.32;;;;;;;8.29;100.00;98382.28;12457478;23;20109;-76
2024/01/03 10:33:17;;;;;;;12.95;6.90;;;;;;;8.40;100.00;98388.72;12434371;23;20026;-75
2024/01/03 10:38:20;;;;;;;17.90;6.90;;;;;;;8.43;100.00;98393.47;12454203;23;20026;-76
2024/01/03 10:43:19;;;;;;;10.30;6.85;;;;;;;8.47;100.00;98410.66;12456220;23;20026;-76
2024/01/03 10:48:16;;;;;;;7.65;6.13;;;;;;;8.50;100.00;98437.19;12456802;23;20034;-75
2024/01/03 10:53:21;;;;;;;11.40;6.60;;;;;;;8.53;100.00;98441.88;12455907;23;20101;-76
2024/01/03 10:58:23;;;;;;;8.70;6.53;;;;;;;8.52;100.00;98413.09;12455949;23;20034;-75
2024/01/03 11:03:26;;;;;;;8.65;6.55;;;;;;;8.52;100.00;98424.00;12450500;23;20036;-75
2024/01/03 11:08:31;;;;;;;7.03;5.68;;;;;;;8.51;100.00;98444.19;12447680;23;20030;-75
2024/01/03 11:13:29;;;;;;;10.18;7.57;;;;;;;8.50;100.00;98442.63;12443283;23;20041;-74
2024/01/03 11:18:41;;;;;;;7.13;6.28;;;;;;;8.55;100.00;98436.88;12452975;23;20029;-74
2024/01/03 11:23:39;;;;;;;7.55;6.20;;;;;;;8.54;100.00;98451.66;12455671;23;20550;-76
2024/01/03 11:28:36;;;;;;;10.52;6.35;;;;;;;8.48;100.00;98442.19;12449436;23;20022;-76
2024/01/03 11:33:39;;;;;;;8.80;7.00;;;;;;;8.47;100.00;98443.34;12452635;23;20026;-77
2024/01/03 11:38:41;;;;;;;7.93;7.18;;;;;;;8.42;100.00;98457.22;12452154;23;20118;-77
2024/01/03 11:43:38;;;;;;;9.27;7.37;;;;;;;8.39;100.00;98458.72;12454784;23;20041;-76
2024/01/03 11:48:39;;;;;;;11.43;7.60;;;;;;;8.38;100.00;98456.34;12455322;23;20033;-75
2024/01/03 11:53:40;;;;;;;12.50;7.65;;;;;;;8.34;100.00;98445.38;12450118;23;20050;-76
2024/01/03 11:58:38;;;;;;;7.88;7.07;;;;;;;8.40;100.00;98435.00;12449529;23;20033;-76
2024/01/03 12:03:36;;;;;;;8.95;7.90;;;;;;;8.34;100.00;98433.72;12454792;23;20081;-76
2024/01/03 12:08:34;;;;;;;10.50;7.50;;;;;;;8.41;100.00;98425.72;12453597;23;20595;-76
2024/01/03 12:13:31;;;;;;;8.10;7.30;;;;;;;8.41;100.00;98428.44;12447874;23;20026;-77
2024/01/03 12:18:33;;;;;;;9.50;7.68;;;;;;;8.39;100.00;98419.81;12450384;23;20029;-76
2024/01/03 12:23:34;;;;;;;10.73;8.18;;;;;;;8.31;100.00;98434.41;12453742;23;20402;-76
2024/01/03 12:28:32;;;;;;;7.22;6.53;;;;;;;8.33;100.00;98432.13;12453204;23;20457;-77
2024/01/03 12:33:32;;;;;;;8.85;7.22;;;;;;;8.36;100.00;98442.31;12450495;23;20038;-77
2024/01/03 12:38:30;;;;;;;6.90;6.30;;;;;;;8.38;100.00;98434.56;12452594;23;20025;-77
2024/01/03 12:43:28;;;;;;;8.15;7.43;;;;;;;8.26;100.00;98431.97;12453364;23;20037;-78
2024/01/03 12:48:26;;;;;;;9.05;8.15;;;;;;;8.11;100.00;98431.69;12441587;23;20026;-78
2024/01/03 12:53:35;;;;;;;14.15;10.13;;;;;;;8.12;100.00;98433.28;12436507;23;20025;-78
2024/01/03 12:58:32;;;;;;;10.32;7.90;;;;;;;8.18;100.00;98418.22;12452721;23;20030;-78
2024/01/03 13:03:31;;;;;;;11.20;8.93;;;;;;;8.07;100.00;98419.16;12458102;23;20033;-76
2024/01/03 13:08:28;;;;;;;11.38;8.65;;;;;;;7.91;100.00;98406.38;12455389;23;20404;-76
2024/01/03 13:13:25;;;;;;;11.02;9.90;;;;;;;7.76;100.00;98399.84;12449704;23;20061;-77
2024/01/03 13:18:23;;;;;;;9.90;8.88;;;;;;;7.69;100.00;98394.25;12451329;23;20084;-76
2024/01/03 13:23:21;;;;;;;10.35;9.02;;;;;;;7.64;100.00;98407.34;12455186;23;20029;-77
2024/01/03 13:28:21;;;;;;;9.90;9.10;;;;;;;7.61;100.00;98381.63;12458334;23;20460;-76
2024/01/03 13:33:20;;;;;;;14.68;10.88;;;;;;;7.58;100.00;98360.59;12458887;23;20033;-77
2024/01/03 13:38:18;;;;;;;16.48;10.50;;;;;;;7.58;100.00;98355.94;12458147;23;20026;-77
2024/01/03 13:43:18;;;;;;;12.23;10.18;;;;;;;7.61;100.00;98359.88;12434151;23;20055;-78
2024/01/03 13:48:16;;;;;;;14.13;10.13;;;;;;;7.56;100.00;98362.88;12455761;23;20026;-77
2024/01/03 13:53:14;;;;;;;13.18;10.80;;;;;;;7.50;100.00;98353.44;12457927;23;20057;-78
2024/01/03 13:58:13;;;;;;;9.93;9.02;;;;;;;7.42;100.00;98348.97;12435285;23;20030;-77
2024/01/03 14:03:12;;;;;;;11.82;8.85;;;;;;;7.30;100.00;98339.78;12458496;23;20029;-76
2024/01/03 14:08:12;;;;;;;13.63;9.15;;;;;;;7.28;100.00;98335.84;12459352;23;20460;-80
2024/01/03 14:13:09;;;;;;;9.93;9.05;;;;;;;7.31;100.00;98313.38;12455839;23;20034;-80
2024/01/03 14:18:09;;;;;;;13.27;10.45;;;;;;;7.31;100.00;98303.31;12448725;23;20220;-76
2024/01/03 14:23:06;;;;;;;11.85;10.43;;;;;;;7.34;100.00;98316.19;12456586;23;20034;-76
2024/01/03 14:28:06;;;;;;;15.85;10.82;;;;;;;7.46;100.00;98319.94;12433305;23;20036;-75
2024/01/03 14:33:04;;;;;;;10.98;9.90;;;;;;;7.56;100.00;98352.00;12453607;23;20030;-75
2024/01/03 14:38:01;;;;;;;13.80;11.18;;;;;;;7.61;100.00;98364.53;12455841;23;20108;-76
2024/01/03 14:43:13;;;;;;;17.80;8.88;;;;;;;7.68;100.00;98381.00;12455541;23;20057;-75
2024/01/03 14:48:10;;;;;;;10.63;9.63;;;;;;;7.72;100.00;98388.09;12453334;23;20464;-75
2024/01/03 14:53:07;;;;;;;13.85;9.38;;;;;;;7.68;100.00;98392.69;12455203;23;20030;-79
2024/01/03 14:58:05;;;;;;;11.48;9.50;;;;;;;7.64;100.00;98402.69;12456554;23;20022;-78
2024/01/03 15:03:03;;;;;;;12.65;10.30;;;;;;;7.37;100.00;98410.63;12447778;23;20064;-77
2024/01/03 15:08:08;;;;;;;11.57;9.95;;;;;;;7.21;100.00;98360.94;12455236;23;20026;-78
2024/01/03 15:13:11;;;;;;;9.88;8.80;;;;;;;7.11;100.00;98381.28;12453971;23;20112;-77
2024/01/03 15:18:15;;;;;;;8.65;8.02;;;;;;;7.04;100.00;98359.38;12447753;23;20052;-77
2024/01/03 15:23:13;;;;;;;10.90;8.63;;;;;;;6.90;100.00;98343.50;12453273;23;20026;-77
2024/01/03 15:28:15;;;;;;;10.98;9.43;;;;;;;6.87;100.00;98327.94;12456424;23;20022;-76
2024/01/03 15:33:13;;;;;;;9.00;8.30;;;;;;;6.89;100.00;98314.78;12428580;23;20539;-76
2024/01/03 15:38:10;;;;;;;9.25;8.35;;;;;;;6.87;100.00;98308.09;12416826;23;20843;-77
2024/01/03 15:43:08;;;;;;;9.55;8.85;;;;;;;6.82;100.00;98297.50;12370220;23;20642;-77
2024/01/03 15:48:10;;;;;;;9.60;8.80;;;;;;;6.80;100.00;98289.72;12394403;23;20026;-77
2024/01/03 15:53:11;;;;;;;11.35;8.60;;;;;;;6.82;100.00;98298.28;12392734;23;20041;-77
2024/01/03 15:58:09;;;;;;;9.38;8.35;;;;;;;6.84;100.00;98293.28;12394045;23;20026;-77
2024/01/03 16:03:10;;;;;;;10.63;9.73;;;;;;;6.86;100.00;98288.31;12391675;23;20060;-79
2024/01/03 16:08:08;;;;;;;;;;;;;;;6.84;100.00;98284.38;12396539;23;20030;-77
2024/01/03 16:13:10;;;;;;;10.07;9.07;;;;;;;6.84;100.00;98285.16;12393707;23;19945;-75
2024/01/03 16:18:10;;;;;;;10.13;9.23;;;;;;;6.89;100.00;98271.31;12386107;23;20022;-76
2024/01/03 16:23:10;;;;;;;10.15;9.18;;;;;;;6.89;100.00;98276.75;12369515;23;20031;-76
2024/01/03 16:28:11;;;;;;;9.93;9.13;;;;;;;6.88;100.00;98275.16;12392851;23;20361;-77
2024/01/03 16:33:10;;;;;;;11.63;9.15;;;;;;;6.90;100.00;98278.31;12391589;23;20026;-77
2024/01/03 17:58:09;;;;;;;14.35;8.95;;;;;;;7.33;100.00;98379.88;12155727;23;20024;-74
2024/01/03 18:17:33;;;;;;;;;;;;;;;;;;;;;
2024/01/03 19:15:23;;;;;;;12.32;9.15;;;;;;;6.74;100.00;98389.69;12152464;23;20020;-74
2024/01/03 19:20:20;;;;;;;10.23;9.18;;;;;;;6.74;100.00;98388.88;12360655;23;20077;-74
2024/01/03 21:28:14;;;;;;;7.53;7.03;;;;;;;6.46;100.00;98596.03;12448229;23;20341;-71
2024/01/03 21:33:09;;;;;;;7.90;7.32;;;;;;;6.45;100.00;98599.91;12473034;23;20113;-72
2024/01/03 21:38:07;;;;;;;8.07;7.38;;;;;;;6.42;100.00;98608.69;12509793;23;20025;-71
2024/01/03 21:48:39;;;;;;;8.77;8.07;;;;;;;6.41;100.00;98599.00;12512652;23;20096;-71
2024/01/03 21:53:35;;;;;;;8.75;7.97;;;;;;;6.44;100.00;98600.22;12500586;23;20033;-72
2024/01/03 21:58:32;;;;;;;8.18;7.57;;;;;;;6.46;100.00;98601.47;12511660;23;20021;-71
2024/01/03 22:03:51;;;;;;;7.15;6.47;;;;;;;6.41;100.00;98601.69;12507920;23;20463;-73
2024/01/03 22:08:47;;;;;;;8.13;7.43;;;;;;;6.44;100.00;98625.44;12497629;23;20032;-72
2024/01/03 22:14:44;;;;;;;;;;;;;;;;;;;;;
2024/01/03 22:20:05;;;;;;;7.90;7.30;;;;;;;6.34;100.00;98609.63;12509646;23;20013;-72
2024/01/03 22:25:01;;;;;;;7.78;7.20;;;;;;;6.30;100.00;98625.00;12507499;23;20049;-71
2024/01/03 22:29:58;;;;;;;7.22;6.72;;;;;;;6.30;100.00;98625.00;12511397;23;20104;-71
2024/01/03 22:34:54;;;;;;;7.38;6.85;;;;;;;6.28;100.00;98627.25;12511069;23;20036;-72
2024/01/03 22:39:51;;;;;;;6.85;6.38;;;;;;;6.26;100.00;98641.16;12511030;23;20403;-71
2024/01/03 22:44:48;;;;;;;7.10;6.63;;;;;;;6.26;100.00;98651.22;12495205;23;20025;-71
2024/01/03 22:49:45;;;;;;;7.38;6.88;;;;;;;6.23;100.00;98646.50;12533773;23;20414;-71
2024/01/03 22:54:41;;;;;;;7.15;6.63;;;;;;;6.17;100.00;98647.84;12533625;23;20025;-70
2024/01/03 22:59:38;;;;;;;6.13;5.57;;;;;;;6.17;100.00;98664.13;12511097;23;20093;-72
2024/01/03 23:04:34;;;;;;;7.50;6.80;;;;;;;6.16;100.00;98670.69;12510287;23;20053;-71
2024/01/03 23:09:32;;;;;;;6.90;6.30;;;;;;;6.13;100.00;98669.44;12509658;23;20068;-71
2024/01/03 23:14:29;;;;;;;7.00;6.47;;;;;;;6.16;100.00;98670.69;12511411;23;20029;-72
2024/01/03 23:19:25;;;;;;;7.45;6.50;;;;;;;6.14;100.00;98670.22;12527814;23;20096;-72
2024/01/03 23:35:48;;;;;;;8.48;7.68;;;;;;;5.86;100.00;98678.97;12545143;23;20018;-69
2024/01/03 23:40:45;;;;;;;8.32;7.68;;;;;;;5.62;100.00;98664.25;12554565;23;20031;-70
2024/01/03 23:45:41;;;;;;;9.32;8.27;;;;;;;5.48;100.00;98661.03;12568292;23;20031;-69
2024/01/03 23:56:32;;;;;;;9.20;8.27;;;;;;;5.34;100.00;98655.09;12484326;23;20066;-72
